createdAt,value
2022-10-06T00:00:54.834Z,102379.16
2022-10-06T00:03:24.605Z,102382.63
2022-10-06T00:05:52.883Z,102377.03
2022-10-06T00:08:20.560Z,102380.16
2022-10-06T00:10:48.899Z,102383.63
2022-10-06T00:13:16.642Z,102391.88
2022-10-06T00:15:44.422Z,102401.91
2022-10-06T00:18:13.469Z,102391.06
2022-10-06T00:20:43.334Z,102400.47
2022-10-06T00:23:11.318Z,102408.75
2022-10-06T00:25:39.161Z,102406.41
2022-10-06T00:28:06.901Z,102408.00
2022-10-06T00:30:34.738Z,102408.63
2022-10-06T00:33:04.543Z,102407.94
2022-10-06T00:35:35.506Z,102412.69
2022-10-06T00:38:03.242Z,102425.34
2022-10-06T00:40:31.890Z,102430.56
2022-10-06T00:43:01.742Z,102428.66
2022-10-06T00:45:34.577Z,102419.63
2022-10-06T00:48:07.693Z,102420.50
2022-10-06T00:50:37.838Z,102424.03
2022-10-06T00:53:06.901Z,102427.16
2022-10-06T00:55:34.753Z,102435.13
2022-10-06T00:58:02.691Z,102434.38
2022-10-06T01:00:30.429Z,102437.03
2022-10-06T01:03:03.386Z,102435.19
2022-10-06T01:05:34.373Z,102436.13
2022-10-06T01:08:04.010Z,102436.19
2022-10-06T01:10:31.766Z,102437.31
2022-10-06T01:12:59.837Z,102443.63
2022-10-06T01:15:29.532Z,102440.22
2022-10-06T01:18:02.174Z,102441.13
2022-10-06T01:20:30.347Z,102442.22
2022-10-06T01:23:03.768Z,102448.47
2022-10-06T01:25:31.533Z,102452.19
2022-10-06T01:28:01.190Z,102449.63
2022-10-06T01:30:32.586Z,102457.66
2022-10-06T01:33:00.347Z,102462.34
2022-10-06T01:35:28.165Z,102464.88
2022-10-06T01:37:58.786Z,102465.97
2022-10-06T01:40:29.267Z,102470.38
2022-10-06T01:42:57.119Z,102465.81
2022-10-06T01:45:24.839Z,102462.97
2022-10-06T01:47:52.845Z,102463.63
2022-10-06T01:50:20.675Z,102464.31
2022-10-06T01:52:48.423Z,102461.53
2022-10-06T01:55:17.240Z,102465.13
2022-10-06T01:57:46.317Z,102462.81
2022-10-06T02:00:14.452Z,102464.66
2022-10-06T02:02:42.559Z,102470.91
2022-10-06T02:05:10.887Z,102467.56
2022-10-06T02:07:39.542Z,102468.94
2022-10-06T02:10:08.206Z,102471.75
2022-10-06T02:12:36.218Z,102480.66
2022-10-06T02:15:06.422Z,102474.59
2022-10-06T02:17:34.094Z,102469.38
2022-10-06T02:20:01.809Z,102469.13
2022-10-06T02:22:29.481Z,102471.84
2022-10-06T02:24:57.223Z,102471.16
2022-10-06T02:27:24.962Z,102478.31
2022-10-06T02:29:52.718Z,102465.63
2022-10-06T02:32:21.754Z,102474.34
2022-10-06T02:34:49.875Z,102471.06
2022-10-06T02:37:17.585Z,102474.63
2022-10-06T02:39:45.354Z,102482.63
2022-10-06T02:42:13.018Z,102481.59
2022-10-06T02:44:40.670Z,102477.97
2022-10-06T02:47:12.515Z,102479.84
2022-10-06T02:49:41.584Z,102480.59
2022-10-06T02:52:11.068Z,102490.91
2022-10-06T02:54:39.093Z,102485.44
2022-10-06T02:57:06.763Z,102483.22
2022-10-06T02:59:36.423Z,102484.19
2022-10-06T03:02:04.318Z,102488.59
2022-10-06T03:04:32.081Z,102479.75
2022-10-06T03:07:01.117Z,102489.38
2022-10-06T03:09:28.810Z,102491.84
2022-10-06T03:11:56.481Z,102493.38
2022-10-06T03:14:24.209Z,102490.50
2022-10-06T03:16:52.567Z,102490.63
2022-10-06T03:19:20.297Z,102496.81
2022-10-06T03:21:47.953Z,102497.00
2022-10-06T03:24:17.567Z,102490.56
2022-10-06T03:26:47.523Z,102490.00
2022-10-06T03:29:16.038Z,102491.72
2022-10-06T03:31:44.211Z,102484.25
2022-10-06T03:34:13.483Z,102497.06
2022-10-06T03:36:41.181Z,102494.00
2022-10-06T03:39:09.290Z,102506.06
2022-10-06T03:41:39.306Z,102511.06
2022-10-06T03:44:07.014Z,102505.41
2022-10-06T03:46:36.761Z,102509.13
2022-10-06T03:49:05.166Z,102510.38
2022-10-06T03:51:34.354Z,102515.00
2022-10-06T03:54:02.339Z,102521.97
2022-10-06T03:56:31.954Z,102529.03
2022-10-06T03:59:03.109Z,102529.03
2022-10-06T04:01:33.118Z,102521.78
2022-10-06T04:04:02.221Z,102526.19
2022-10-06T04:06:31.981Z,102538.59
2022-10-06T04:09:00.435Z,102532.59
2022-10-06T04:11:30.457Z,102539.13
2022-10-06T04:14:00.445Z,102545.53
2022-10-06T04:16:31.086Z,102550.03
2022-10-06T04:19:00.913Z,102544.72
2022-10-06T04:21:30.450Z,102554.00
2022-10-06T04:23:59.623Z,102554.94
2022-10-06T04:26:31.505Z,102561.88
2022-10-06T04:29:00.562Z,102550.25
2022-10-06T04:31:32.793Z,102557.94
2022-10-06T04:34:02.196Z,102565.00
2022-10-06T04:36:32.211Z,102566.88
2022-10-06T04:39:02.660Z,102566.66
2022-10-06T04:41:32.936Z,102571.34
2022-10-06T04:44:01.142Z,102580.16
2022-10-06T04:46:47.157Z,102573.81
2022-10-06T04:49:20.009Z,102563.38
2022-10-06T04:51:48.546Z,102566.94
2022-10-06T04:54:16.472Z,102574.94
2022-10-06T04:56:44.127Z,102567.81
2022-10-06T04:59:11.872Z,102574.00
2022-10-06T05:01:41.003Z,102570.66
2022-10-06T05:04:08.753Z,102573.31
2022-10-06T05:06:38.107Z,102583.09
2022-10-06T05:09:08.385Z,102579.56
2022-10-06T05:11:36.459Z,102579.47
2022-10-06T05:14:04.219Z,102584.22
2022-10-06T05:16:33.538Z,102582.50
2022-10-06T05:19:02.622Z,102585.16
2022-10-06T05:21:32.177Z,102589.44
2022-10-06T05:24:00.170Z,102591.16
2022-10-06T05:26:29.794Z,102591.06
2022-10-06T05:28:58.133Z,102585.75
2022-10-06T05:31:27.852Z,102598.28
2022-10-06T05:33:56.251Z,102596.50
2022-10-06T05:36:26.894Z,102600.19
2022-10-06T05:38:54.952Z,102599.09
2022-10-06T05:41:25.030Z,102595.50
2022-10-06T05:43:53.918Z,102605.28
2022-10-06T05:46:24.966Z,102610.91
2022-10-06T05:48:55.508Z,102616.25
2022-10-06T05:51:30.689Z,102616.41
2022-10-06T05:53:59.413Z,102618.06
2022-10-06T05:56:28.900Z,102620.72
2022-10-06T05:58:57.864Z,102619.78
2022-10-06T06:01:28.014Z,102624.09
2022-10-06T06:03:57.303Z,102626.00
2022-10-06T06:06:28.254Z,102626.81
2022-10-06T06:08:57.809Z,102623.09
2022-10-06T06:11:27.811Z,102622.91
2022-10-06T06:13:57.630Z,102625.13
2022-10-06T06:16:25.270Z,102622.84
2022-10-06T06:18:53.433Z,102635.38
2022-10-06T06:21:21.729Z,102633.50
2022-10-06T06:23:50.966Z,102631.81
2022-10-06T06:26:23.385Z,102625.44
2022-10-06T06:28:52.211Z,102636.09
2022-10-06T06:31:22.094Z,102631.47
2022-10-06T06:33:52.963Z,102635.69
2022-10-06T06:36:22.388Z,102645.53
2022-10-06T06:38:53.399Z,102637.56
2022-10-06T06:41:22.730Z,102648.22
2022-10-06T06:43:52.784Z,102651.19
2022-10-06T06:46:25.037Z,102651.84
2022-10-06T06:48:53.686Z,102656.22
2022-10-06T06:51:22.909Z,102651.13
2022-10-06T06:53:52.542Z,102658.31
2022-10-06T06:56:21.381Z,102657.41
2022-10-06T06:58:50.051Z,102651.03
2022-10-06T07:01:19.908Z,102650.09
2022-10-06T07:03:57.669Z,102658.78
2022-10-06T07:06:28.848Z,102663.03
2022-10-06T07:08:59.297Z,102665.63
2022-10-06T07:11:29.059Z,102668.16
2022-10-06T07:13:58.771Z,102673.97
2022-10-06T07:16:44.146Z,102672.69
2022-10-06T07:19:30.027Z,102671.44
2022-10-06T07:22:17.234Z,102679.22
2022-10-06T07:25:04.902Z,102684.25
2022-10-06T07:27:34.174Z,102693.91
2022-10-06T07:30:01.907Z,102692.75
2022-10-06T07:32:31.281Z,102700.44
2022-10-06T07:35:00.638Z,102698.47
2022-10-06T07:37:29.724Z,102707.19
2022-10-06T07:39:58.825Z,102713.25
2022-10-06T07:42:26.494Z,102708.44
2022-10-06T07:45:11.474Z,102716.97
2022-10-06T07:47:39.174Z,102714.69
2022-10-06T07:50:07.980Z,102723.41
2022-10-06T07:52:39.106Z,102723.16
2022-10-06T07:55:09.372Z,102730.16
2022-10-06T07:57:37.041Z,102728.00
2022-10-06T08:00:07.146Z,102733.06
2022-10-06T08:02:36.020Z,102731.91
2022-10-06T08:05:04.702Z,102740.31
2022-10-06T08:07:32.450Z,102740.84
2022-10-06T08:10:00.166Z,102741.53
2022-10-06T08:12:34.886Z,102745.88
2022-10-06T08:15:06.987Z,102739.38
2022-10-06T08:17:36.345Z,102749.81
2022-10-06T08:20:04.953Z,102748.66
2022-10-06T08:22:33.265Z,102745.41
2022-10-06T08:25:06.326Z,102739.31
2022-10-06T08:27:36.907Z,102750.97
2022-10-06T08:30:06.165Z,102749.69
2022-10-06T08:32:34.435Z,102750.75
2022-10-06T08:35:02.421Z,102751.25
2022-10-06T08:37:30.108Z,102748.69
2022-10-06T08:39:58.296Z,102749.84
2022-10-06T08:42:36.636Z,102749.25
2022-10-06T08:45:07.804Z,102748.06
2022-10-06T08:47:37.363Z,102750.41
2022-10-06T08:50:12.124Z,102750.53
2022-10-06T08:52:53.149Z,102749.09
2022-10-06T08:55:31.548Z,102756.78
2022-10-06T09:00:44.863Z,102756.22
2022-10-06T09:03:23.595Z,102757.09
2022-10-06T09:05:54.173Z,102754.19
2022-10-06T09:08:43.569Z,102763.94
2022-10-06T09:11:27.047Z,102766.28
2022-10-06T09:13:59.989Z,102766.63
2022-10-06T09:16:33.232Z,102766.03
2022-10-06T09:19:10.111Z,102771.38
2022-10-06T09:21:41.928Z,102772.97
2022-10-06T09:24:15.247Z,102777.75
2022-10-06T09:26:44.047Z,102777.38
2022-10-06T09:29:12.057Z,102780.75
2022-10-06T09:31:43.569Z,102786.13
2022-10-06T09:34:21.179Z,102782.88
2022-10-06T09:37:02.046Z,102782.97
2022-10-06T09:39:36.369Z,102786.81
2022-10-06T09:42:07.822Z,102787.38
2022-10-06T09:44:47.038Z,102786.97
2022-10-06T09:47:39.951Z,102780.66
2022-10-06T09:50:20.432Z,102782.25
2022-10-06T09:53:12.742Z,102782.97
2022-10-06T09:56:05.059Z,102789.56
2022-10-06T09:58:34.743Z,102791.78
2022-10-06T10:01:04.846Z,102787.13
2022-10-06T10:04:08.631Z,102786.13
2022-10-06T10:06:40.129Z,102782.88
2022-10-06T10:09:30.014Z,102775.38
2022-10-06T10:12:31.228Z,102776.31
2022-10-06T10:15:04.019Z,102778.94
2022-10-06T10:17:41.204Z,102773.78
2022-10-06T10:20:28.145Z,102770.56
2022-10-06T10:22:59.259Z,102766.88
2022-10-06T10:25:58.449Z,102767.69
2022-10-06T10:28:50.934Z,102759.28
2022-10-06T10:31:25.771Z,102759.53
2022-10-06T10:34:12.403Z,102762.91
2022-10-06T10:36:54.534Z,102763.03
2022-10-06T10:39:32.146Z,102754.78
2022-10-06T10:42:02.889Z,102755.28
2022-10-06T10:44:34.842Z,102750.50
2022-10-06T10:47:14.394Z,102753.25
2022-10-06T10:49:46.722Z,102752.59
2022-10-06T10:52:20.714Z,102752.13
2022-10-06T10:54:53.341Z,102754.25
2022-10-06T10:57:25.393Z,102753.06
2022-10-06T11:00:01.546Z,102748.25
2022-10-06T11:02:29.682Z,102754.50
2022-10-06T11:05:02.507Z,102746.97
2022-10-06T11:07:37.520Z,102746.34
2022-10-06T11:10:14.275Z,102738.63
2022-10-06T11:12:58.472Z,102737.25
2022-10-06T11:15:41.851Z,102738.34
2022-10-06T11:18:22.270Z,102738.63
2022-10-06T11:20:54.198Z,102739.66
2022-10-06T11:23:42.368Z,102739.09
2022-10-06T11:26:20.221Z,102733.16
2022-10-06T11:28:52.563Z,102719.22
2022-10-06T11:31:34.085Z,102724.53
2022-10-06T11:34:03.963Z,102726.63
2022-10-06T11:36:42.498Z,102721.34
2022-10-06T11:39:21.550Z,102719.09
2022-10-06T11:41:52.961Z,102718.09
2022-10-06T11:44:32.270Z,102714.47
2022-10-06T11:47:06.169Z,102715.50
2022-10-06T11:49:39.420Z,102708.34
2022-10-06T11:52:56.363Z,102705.16
2022-10-06T11:55:28.893Z,102702.00
2022-10-06T12:01:05.414Z,102693.69
2022-10-06T12:03:47.300Z,102695.44
2022-10-06T12:07:08.803Z,102684.16
2022-10-06T12:10:14.152Z,102679.53
2022-10-06T12:13:06.072Z,102680.84
2022-10-06T12:18:46.066Z,102675.31
2022-10-06T12:21:24.292Z,102673.81
2022-10-06T12:24:37.660Z,102668.38
2022-10-06T12:27:26.254Z,102666.09
2022-10-06T12:30:05.861Z,102660.66
2022-10-06T12:32:49.965Z,102654.56
2022-10-06T12:35:29.685Z,102654.75
2022-10-06T12:38:00.452Z,102644.78
2022-10-06T12:40:49.647Z,102644.06
2022-10-06T12:43:53.740Z,102644.69
2022-10-06T12:46:41.431Z,102629.34
2022-10-06T12:49:26.598Z,102622.38
2022-10-06T12:51:57.922Z,102625.91
2022-10-06T12:54:34.789Z,102630.28
2022-10-06T12:57:04.176Z,102631.78
2022-10-06T12:59:33.887Z,102625.31
2022-10-06T13:02:09.307Z,102616.00
2022-10-06T13:04:41.247Z,102613.31
2022-10-06T13:07:18.416Z,102619.88
2022-10-06T13:09:47.913Z,102613.47
2022-10-06T13:12:27.641Z,102601.44
2022-10-06T13:15:17.167Z,102606.53
2022-10-06T13:17:50.623Z,102598.00
2022-10-06T13:20:25.675Z,102595.88
2022-10-06T13:22:58.814Z,102592.38
2022-10-06T13:25:34.516Z,102594.31
2022-10-06T13:28:02.735Z,102589.66
2022-10-06T13:30:34.989Z,102583.03
2022-10-06T13:33:08.265Z,102588.16
2022-10-06T13:35:35.942Z,102580.59
2022-10-06T13:38:06.078Z,102575.44
2022-10-06T13:40:44.090Z,102572.81
2022-10-06T13:43:17.518Z,102567.59
2022-10-06T13:45:45.885Z,102568.56
2022-10-06T13:48:16.857Z,102576.88
2022-10-06T13:50:47.840Z,102574.06
2022-10-06T13:53:23.518Z,102561.47
2022-10-06T13:55:51.267Z,102571.06
2022-10-06T13:58:19.146Z,102559.44
2022-10-06T14:00:48.638Z,102562.94
2022-10-06T14:03:22.560Z,102563.41
2022-10-06T14:05:50.701Z,102560.28
2022-10-06T14:08:23.619Z,102566.72
2022-10-06T14:10:52.967Z,102563.09
2022-10-06T14:13:22.001Z,102553.56
2022-10-06T14:15:50.407Z,102550.22
2022-10-06T14:18:23.681Z,102552.47
2022-10-06T14:20:51.970Z,102552.69
2022-10-06T14:23:38.972Z,102545.09
2022-10-06T14:26:06.730Z,102543.38
2022-10-06T14:28:34.433Z,102540.06
2022-10-06T14:31:02.131Z,102531.66
2022-10-06T14:33:31.196Z,102542.78
2022-10-06T14:35:58.710Z,102535.50
2022-10-06T14:38:26.190Z,102532.88
2022-10-06T14:40:53.790Z,102538.69
2022-10-06T14:43:21.408Z,102533.44
2022-10-06T14:45:48.943Z,102536.38
2022-10-06T14:48:16.474Z,102534.22
2022-10-06T14:50:46.729Z,102530.25
2022-10-06T14:53:16.625Z,102526.69
2022-10-06T14:55:44.765Z,102528.53
2022-10-06T14:58:12.326Z,102531.47
2022-10-06T15:00:42.840Z,102520.44
2022-10-06T15:03:10.676Z,102522.84
2022-10-06T15:05:59.325Z,102517.59
2022-10-06T15:08:27.693Z,102516.19
2022-10-06T15:10:55.454Z,102514.00
2022-10-06T15:13:23.030Z,102510.59
2022-10-06T15:15:57.734Z,102498.59
2022-10-06T15:18:26.105Z,102499.22
2022-10-06T15:20:54.085Z,102494.53
2022-10-06T15:23:21.545Z,102499.75
2022-10-06T15:26:13.825Z,102494.88
2022-10-06T15:28:58.567Z,102499.41
2022-10-06T15:31:26.717Z,102491.84
2022-10-06T15:33:54.885Z,102492.63
2022-10-06T15:36:23.658Z,102484.06
2022-10-06T15:38:51.217Z,102487.84
2022-10-06T15:41:20.097Z,102490.19
2022-10-06T15:43:56.369Z,102487.53
2022-10-06T15:46:26.171Z,102484.34
2022-10-06T15:48:54.258Z,102478.88
2022-10-06T15:51:23.076Z,102471.81
2022-10-06T15:53:51.398Z,102466.13
2022-10-06T15:56:20.382Z,102468.09
2022-10-06T15:58:48.689Z,102464.50
2022-10-06T16:01:34.086Z,102463.50
2022-10-06T16:04:08.453Z,102467.19
2022-10-06T16:06:43.800Z,102464.97
2022-10-06T16:09:12.972Z,102456.66
2022-10-06T16:11:41.919Z,102460.63
2022-10-06T16:14:11.511Z,102462.63
2022-10-06T16:16:43.517Z,102451.56
2022-10-06T16:19:11.570Z,102448.31
2022-10-06T16:21:39.339Z,102453.31
2022-10-06T16:24:06.938Z,102446.06
2022-10-06T16:26:34.441Z,102443.16
2022-10-06T16:29:03.501Z,102445.19
2022-10-06T16:31:31.061Z,102446.06
2022-10-06T16:33:58.727Z,102450.31
2022-10-06T16:36:26.310Z,102441.44
2022-10-06T16:38:54.801Z,102439.94
2022-10-06T16:41:22.589Z,102444.91
2022-10-06T16:43:51.294Z,102445.63
2022-10-06T16:46:21.182Z,102443.31
2022-10-06T16:48:49.355Z,102435.84
2022-10-06T16:51:17.977Z,102440.72
2022-10-06T16:53:46.049Z,102440.53
2022-10-06T16:56:14.773Z,102442.44
2022-10-06T16:58:43.117Z,102441.94
2022-10-06T17:01:11.133Z,102444.91
2022-10-06T17:03:40.425Z,102447.31
2022-10-06T17:06:09.442Z,102454.03
2022-10-06T17:08:37.796Z,102446.41
2022-10-06T17:11:10.594Z,102440.38
2022-10-06T17:13:39.412Z,102444.91
2022-10-06T17:16:08.616Z,102439.91
2022-10-06T17:18:36.137Z,102447.88
2022-10-06T17:21:25.769Z,102441.69
2022-10-06T17:23:54.445Z,102441.28
2022-10-06T17:26:23.499Z,102441.44
2022-10-06T17:28:51.793Z,102444.66
2022-10-06T17:31:20.786Z,102440.59
2022-10-06T17:33:48.857Z,102448.59
2022-10-06T17:36:18.377Z,102441.91
2022-10-06T17:38:46.794Z,102443.94
2022-10-06T17:41:16.815Z,102446.56
2022-10-06T17:43:46.875Z,102444.13
2022-10-06T17:46:15.315Z,102446.22
2022-10-06T17:48:43.779Z,102449.38
2022-10-06T17:51:12.142Z,102449.53
2022-10-06T17:53:42.060Z,102452.88
2022-10-06T17:56:11.114Z,102451.53
2022-10-06T17:58:38.912Z,102452.00
2022-10-06T18:01:07.434Z,102452.16
2022-10-06T18:03:35.741Z,102453.13
2022-10-06T18:06:03.674Z,102458.25
2022-10-06T18:08:32.437Z,102457.44
2022-10-06T18:11:19.014Z,102449.75
2022-10-06T18:13:47.949Z,102455.78
2022-10-06T18:16:16.716Z,102454.44
2022-10-06T18:18:48.210Z,102452.25
2022-10-06T18:21:17.145Z,102458.72
2022-10-06T18:23:44.916Z,102454.13
2022-10-06T18:26:17.193Z,102449.56
2022-10-06T18:28:45.210Z,102453.22
2022-10-06T18:31:13.073Z,102456.09
2022-10-06T18:36:28.149Z,102462.31
2022-10-06T18:38:57.680Z,102460.91
2022-10-06T18:41:28.228Z,102453.16
2022-10-06T18:43:56.127Z,102461.91
2022-10-06T18:46:40.952Z,102459.03
2022-10-06T18:49:12.025Z,102459.47
2022-10-06T18:51:41.016Z,102459.53
2022-10-06T18:54:09.509Z,102454.63
2022-10-06T18:56:39.272Z,102458.94
2022-10-06T18:59:08.621Z,102456.50
2022-10-06T19:01:36.796Z,102458.72
2022-10-06T19:04:05.422Z,102462.22
2022-10-06T19:06:33.828Z,102458.72
2022-10-06T19:09:02.077Z,102457.47
2022-10-06T19:11:47.669Z,102459.28
2022-10-06T19:14:18.792Z,102450.41
2022-10-06T19:16:46.412Z,102450.47
2022-10-06T19:19:14.949Z,102445.16
2022-10-06T19:21:43.249Z,102447.38
2022-10-06T19:24:13.185Z,102443.88
2022-10-06T19:26:45.785Z,102453.06
2022-10-06T19:29:14.397Z,102447.16
2022-10-06T19:31:44.284Z,102451.50
2022-10-06T19:34:13.153Z,102450.34
2022-10-06T19:36:41.437Z,102442.25
2022-10-06T19:39:10.961Z,102446.13
2022-10-06T19:41:56.450Z,102445.47
2022-10-06T19:44:24.224Z,102443.19
2022-10-06T19:46:53.452Z,102451.44
2022-10-06T19:49:20.965Z,102448.81
2022-10-06T19:51:49.376Z,102452.47
2022-10-06T19:54:17.803Z,102450.53
2022-10-06T19:56:46.062Z,102458.63
2022-10-06T19:59:15.648Z,102458.22
2022-10-06T20:01:43.293Z,102455.69
2022-10-06T20:04:12.394Z,102458.69
2022-10-06T20:06:41.280Z,102452.41
2022-10-06T20:09:09.138Z,102454.50
2022-10-06T20:11:37.054Z,102447.41
2022-10-06T20:14:05.034Z,102449.34
2022-10-06T20:16:33.248Z,102452.22
2022-10-06T20:19:00.820Z,102448.91
2022-10-06T20:21:31.087Z,102453.72
2022-10-06T20:23:59.468Z,102445.41
2022-10-06T20:26:31.338Z,102449.88
2022-10-06T20:28:59.317Z,102447.53
2022-10-06T20:31:27.913Z,102450.16
2022-10-06T20:33:56.444Z,102441.81
2022-10-06T20:36:23.968Z,102438.47
2022-10-06T20:39:10.277Z,102445.56
2022-10-06T20:41:37.928Z,102448.31
2022-10-06T20:44:05.701Z,102436.88
2022-10-06T20:46:34.136Z,102438.09
2022-10-06T20:49:03.354Z,102435.22
2022-10-06T20:51:31.486Z,102435.13
2022-10-06T20:54:00.448Z,102431.44
2022-10-06T20:56:28.337Z,102436.00
2022-10-06T20:58:55.852Z,102435.31
2022-10-06T21:01:23.531Z,102437.56
2022-10-06T21:03:54.521Z,102433.03
2022-10-06T21:06:23.674Z,102437.75
2022-10-06T21:08:51.587Z,102436.91
2022-10-06T21:11:21.716Z,102435.28
2022-10-06T21:13:52.184Z,102441.63
2022-10-06T21:16:20.007Z,102431.22
2022-10-06T21:18:47.664Z,102424.25
2022-10-06T21:21:15.424Z,102421.69
2022-10-06T21:23:44.501Z,102421.50
2022-10-06T21:26:12.899Z,102422.19
2022-10-06T21:28:42.207Z,102406.34
2022-10-06T21:31:12.847Z,102400.31
2022-10-06T21:33:41.856Z,102411.53
2022-10-06T21:36:10.836Z,102408.19
2022-10-06T21:38:39.000Z,102397.63
2022-10-06T21:41:27.135Z,102399.06
2022-10-06T21:43:56.071Z,102401.56
2022-10-06T21:46:28.772Z,102394.34
2022-10-06T21:48:57.586Z,102394.63
2022-10-06T21:51:26.074Z,102405.41
2022-10-06T21:53:53.651Z,102400.91
2022-10-06T21:56:22.076Z,102395.22
2022-10-06T21:58:51.713Z,102397.91
2022-10-06T22:01:21.752Z,102393.44
2022-10-06T22:03:49.479Z,102394.31
2022-10-06T22:06:19.504Z,102389.81
2022-10-06T22:08:47.483Z,102388.97
2022-10-06T22:11:15.927Z,102403.91
2022-10-06T22:13:44.692Z,102392.38
2022-10-06T22:16:13.146Z,102383.25
2022-10-06T22:18:42.537Z,102383.16
2022-10-06T22:21:14.427Z,102382.34
2022-10-06T22:23:42.372Z,102383.41
2022-10-06T22:26:10.506Z,102385.34
2022-10-06T22:28:38.226Z,102378.72
2022-10-06T22:31:06.569Z,102372.91
2022-10-06T22:33:34.513Z,102376.50
2022-10-06T22:36:03.653Z,102371.06
2022-10-06T22:38:31.564Z,102374.81
2022-10-06T22:41:02.223Z,102369.56
2022-10-06T22:43:29.963Z,102362.50
2022-10-06T22:45:57.824Z,102359.69
2022-10-06T22:48:25.823Z,102357.28
2022-10-06T22:50:53.699Z,102350.00
2022-10-06T22:53:23.544Z,102357.31
2022-10-06T22:55:51.039Z,102359.63
2022-10-06T22:58:18.583Z,102365.13
2022-10-06T23:00:46.493Z,102351.47
2022-10-06T23:03:14.078Z,102354.25
2022-10-06T23:05:41.625Z,102350.19
2022-10-06T23:08:09.232Z,102349.75
2022-10-06T23:10:38.133Z,102341.00
2022-10-06T23:13:05.647Z,102334.66
2022-10-06T23:15:33.163Z,102334.72
2022-10-06T23:18:00.615Z,102331.44
2022-10-06T23:20:28.151Z,102335.72
2022-10-06T23:22:55.648Z,102324.88
2022-10-06T23:25:27.152Z,102330.69
2022-10-06T23:27:56.256Z,102319.97
2022-10-06T23:30:23.808Z,102326.66
2022-10-06T23:32:51.274Z,102319.03
2022-10-06T23:35:18.755Z,102320.91
2022-10-06T23:37:46.938Z,102312.38
2022-10-06T23:40:14.602Z,102311.09
2022-10-06T23:42:42.080Z,102313.81
2022-10-06T23:45:11.648Z,102304.13
2022-10-06T23:47:39.205Z,102307.69
2022-10-06T23:50:07.178Z,102306.00
2022-10-06T23:52:34.611Z,102302.41
2022-10-06T23:55:02.129Z,102298.22
2022-10-06T23:57:29.559Z,102298.28
2022-10-06T23:59:57.077Z,102295.72
